createdAt,value
2023-03-11T00:00:52.691Z,-0.74
2023-03-11T00:03:20.369Z,-0.73
2023-03-11T00:05:47.287Z,-0.73
2023-03-11T00:08:16.954Z,-0.71
2023-03-11T00:10:45.737Z,-0.68
2023-03-11T00:13:15.259Z,-0.70
2023-03-11T00:15:43.575Z,-0.69
2023-03-11T00:18:10.123Z,-0.72
2023-03-11T00:20:39.678Z,-0.71
2023-03-11T00:23:10.814Z,-0.71
2023-03-11T00:25:38.497Z,-0.70
2023-03-11T00:28:07.319Z,-0.69
2023-03-11T00:30:34.299Z,-0.69
2023-03-11T00:33:00.881Z,-0.71
2023-03-11T00:35:30.184Z,-0.73
2023-03-11T00:38:02.761Z,-0.72
2023-03-11T00:40:31.773Z,-0.73
2023-03-11T00:42:58.799Z,-0.72
2023-03-11T00:45:26.579Z,-0.71
2023-03-11T00:47:54.485Z,-0.69
2023-03-11T00:50:24.133Z,-0.69
2023-03-11T00:52:51.585Z,-0.69
2023-03-11T00:55:21.790Z,-0.65
2023-03-11T00:57:48.252Z,-0.65
2023-03-11T01:00:16.874Z,-0.63
2023-03-11T01:02:43.588Z,-0.61
2023-03-11T01:05:10.644Z,-0.60
2023-03-11T01:07:37.391Z,-0.59
2023-03-11T01:10:05.004Z,-0.59
2023-03-11T01:12:31.453Z,-0.56
2023-03-11T01:14:57.914Z,-0.58
2023-03-11T01:17:24.478Z,-0.59
2023-03-11T01:19:51.008Z,-0.60
2023-03-11T01:22:17.783Z,-0.61
2023-03-11T01:24:44.379Z,-0.61
2023-03-11T01:27:10.998Z,-0.59
2023-03-11T01:29:37.482Z,-0.57
2023-03-11T01:32:04.535Z,-0.58
2023-03-11T01:34:31.158Z,-0.57
2023-03-11T01:36:57.672Z,-0.57
2023-03-11T01:39:24.171Z,-0.56
2023-03-11T01:41:52.945Z,-0.57
2023-03-11T01:44:19.417Z,-0.56
2023-03-11T01:46:52.000Z,-0.56
2023-03-11T01:49:20.799Z,-0.56
2023-03-11T01:52:08.146Z,-0.56
2023-03-11T01:54:39.571Z,-0.56
2023-03-11T01:57:09.536Z,-0.56
2023-03-11T01:59:44.053Z,-0.56
2023-03-11T02:02:32.091Z,-0.57
2023-03-11T02:05:01.200Z,-0.55
2023-03-11T02:07:29.205Z,-0.55
2023-03-11T02:09:55.607Z,-0.55
2023-03-11T02:12:22.544Z,-0.54
2023-03-11T02:14:54.534Z,-0.55
2023-03-11T02:17:22.341Z,-0.55
2023-03-11T02:19:58.144Z,-0.54
2023-03-11T02:22:24.854Z,-0.54
2023-03-11T02:25:09.336Z,-0.53
2023-03-11T02:27:41.153Z,-0.54
2023-03-11T02:30:11.014Z,-0.56
2023-03-11T02:32:38.091Z,-0.55
2023-03-11T02:35:06.377Z,-0.56
2023-03-11T02:37:32.938Z,-0.57
2023-03-11T02:40:24.349Z,-0.57
2023-03-11T02:42:54.059Z,-0.57
2023-03-11T02:45:23.874Z,-0.59
2023-03-11T02:47:52.737Z,-0.61
2023-03-11T02:50:19.374Z,-0.66
2023-03-11T02:52:49.139Z,-0.71
2023-03-11T02:55:17.988Z,-0.77
2023-03-11T02:57:45.214Z,-0.82
2023-03-11T03:00:15.702Z,-0.90
2023-03-11T03:02:43.931Z,-0.95
2023-03-11T03:05:11.322Z,-1.02
2023-03-11T03:07:38.672Z,-1.08
2023-03-11T03:10:06.470Z,-1.13
2023-03-11T03:12:32.892Z,-1.22
2023-03-11T03:14:59.385Z,-1.25
2023-03-11T03:17:25.990Z,-1.29
2023-03-11T03:19:52.532Z,-1.31
2023-03-11T03:22:18.994Z,-1.36
2023-03-11T03:24:45.492Z,-1.38
2023-03-11T03:27:12.288Z,-1.42
2023-03-11T03:29:38.762Z,-1.44
2023-03-11T03:32:05.743Z,-1.49
2023-03-11T03:34:32.306Z,-1.51
2023-03-11T03:36:58.778Z,-1.53
2023-03-11T03:39:25.193Z,-1.53
2023-03-11T03:41:51.666Z,-1.54
2023-03-11T03:44:18.284Z,-1.55
2023-03-11T03:46:44.751Z,-1.55
2023-03-11T03:49:11.179Z,-1.55
2023-03-11T03:51:37.571Z,-1.52
2023-03-11T03:54:04.120Z,-1.51
2023-03-11T03:56:30.558Z,-1.50
2023-03-11T03:58:56.997Z,-1.47
2023-03-11T04:01:23.410Z,-1.45
2023-03-11T04:03:49.967Z,-1.43
2023-03-11T04:06:24.218Z,-1.44
2023-03-11T04:08:52.036Z,-1.41
2023-03-11T04:11:18.763Z,-1.41
2023-03-11T04:13:45.429Z,-1.43
2023-03-11T04:16:19.687Z,-1.47
2023-03-11T04:18:46.706Z,-1.50
2023-03-11T04:21:13.414Z,-1.55
2023-03-11T04:23:39.936Z,-1.60
2023-03-11T04:26:06.414Z,-1.65
2023-03-11T04:28:33.306Z,-1.68
2023-03-11T04:30:59.819Z,-1.73
2023-03-11T04:33:26.380Z,-1.81
2023-03-11T04:35:52.915Z,-1.83
2023-03-11T04:38:19.397Z,-1.85
2023-03-11T04:40:45.897Z,-1.87
2023-03-11T04:43:12.454Z,-1.90
2023-03-11T04:45:40.083Z,-1.95
2023-03-11T04:48:06.765Z,-1.96
2023-03-11T04:50:33.285Z,-1.96
2023-03-11T04:52:59.769Z,-1.97
2023-03-11T04:55:26.461Z,-2.01
2023-03-11T04:57:52.921Z,-2.01
2023-03-11T05:00:24.605Z,-2.03
2023-03-11T05:02:51.447Z,-2.05
2023-03-11T05:05:21.385Z,-2.09
2023-03-11T05:07:48.569Z,-2.11
2023-03-11T05:10:22.139Z,-2.14
2023-03-11T05:12:52.037Z,-2.15
2023-03-11T05:15:19.048Z,-2.18
2023-03-11T05:17:45.884Z,-2.20
2023-03-11T05:20:14.374Z,-2.21
2023-03-11T05:22:41.953Z,-2.24
2023-03-11T05:25:08.941Z,-2.27
2023-03-11T05:27:35.605Z,-2.28
2023-03-11T05:30:02.063Z,-2.29
2023-03-11T05:32:28.525Z,-2.29
2023-03-11T05:34:54.993Z,-2.31
2023-03-11T05:37:21.445Z,-2.35
2023-03-11T05:39:47.914Z,-2.35
2023-03-11T05:42:14.461Z,-2.39
2023-03-11T05:44:41.900Z,-2.41
2023-03-11T05:47:08.344Z,-2.44
2023-03-11T05:49:34.969Z,-2.45
2023-03-11T05:52:01.436Z,-2.45
2023-03-11T05:54:27.932Z,-2.47
2023-03-11T05:56:55.488Z,-2.49
2023-03-11T05:59:21.922Z,-2.53
2023-03-11T06:01:48.308Z,-2.52
2023-03-11T06:04:14.929Z,-2.56
2023-03-11T06:06:42.498Z,-2.55
2023-03-11T06:09:15.699Z,-2.56
2023-03-11T06:11:42.801Z,-2.55
2023-03-11T06:14:14.383Z,-2.54
2023-03-11T06:16:41.631Z,-2.52
2023-03-11T06:19:08.283Z,-2.50
2023-03-11T06:21:34.901Z,-2.47
2023-03-11T06:24:01.398Z,-2.43
2023-03-11T06:26:28.326Z,-2.44
2023-03-11T06:28:54.906Z,-2.44
2023-03-11T06:31:28.944Z,-2.43
2023-03-11T06:33:56.243Z,-2.45
2023-03-11T06:36:23.616Z,-2.45
2023-03-11T06:38:52.575Z,-2.42
2023-03-11T06:41:19.257Z,-2.40
2023-03-11T06:43:45.651Z,-2.37
2023-03-11T06:46:18.037Z,-2.37
2023-03-11T06:48:46.257Z,-2.35
2023-03-11T06:51:13.208Z,-2.32
2023-03-11T06:53:40.117Z,-2.28
2023-03-11T06:56:09.300Z,-2.22
2023-03-11T06:58:37.161Z,-2.14
2023-03-11T07:01:06.966Z,-2.07
2023-03-11T07:03:33.857Z,-2.06
2023-03-11T07:06:00.374Z,-2.02
2023-03-11T07:08:26.968Z,-2.01
2023-03-11T07:11:20.376Z,-1.94
2023-03-11T07:13:47.640Z,-1.86
2023-03-11T07:16:17.156Z,-1.77
2023-03-11T07:18:46.260Z,-1.68
2023-03-11T07:21:15.223Z,-1.60
2023-03-11T07:23:42.361Z,-1.55
2023-03-11T07:26:14.296Z,-1.49
2023-03-11T07:28:41.736Z,-1.39
2023-03-11T07:31:14.287Z,-1.30
2023-03-11T07:33:40.748Z,-1.21
2023-03-11T07:36:10.023Z,-1.12
2023-03-11T07:38:36.992Z,-1.03
2023-03-11T07:41:04.273Z,-0.93
2023-03-11T07:43:30.948Z,-0.82
2023-03-11T07:46:06.753Z,-0.73
2023-03-11T07:48:33.905Z,-0.63
2023-03-11T07:51:05.642Z,-0.55
2023-03-11T07:53:32.706Z,-0.46
2023-03-11T07:55:59.814Z,-0.37
2023-03-11T07:58:27.167Z,-0.25
2023-03-11T08:00:55.329Z,-0.16
2023-03-11T08:03:21.834Z,-0.07
2023-03-11T08:05:48.300Z,0.02
2023-03-11T08:08:14.750Z,0.10
2023-03-11T08:10:41.221Z,0.21
2023-03-11T08:13:08.825Z,0.33
2023-03-11T08:15:37.047Z,0.45
2023-03-11T08:18:04.063Z,0.55
2023-03-11T08:20:30.721Z,0.58
2023-03-11T08:22:58.481Z,0.63
2023-03-11T08:25:25.304Z,0.70
2023-03-11T08:27:51.733Z,0.77
2023-03-11T08:30:18.554Z,0.84
2023-03-11T08:32:45.118Z,0.91
2023-03-11T08:35:11.625Z,1.06
2023-03-11T08:37:38.226Z,1.12
2023-03-11T08:40:05.589Z,1.16
2023-03-11T08:42:32.144Z,1.25
2023-03-11T08:44:58.986Z,1.31
2023-03-11T08:47:25.565Z,1.40
2023-03-11T08:49:52.077Z,1.47
2023-03-11T08:52:18.552Z,1.49
2023-03-11T08:54:45.021Z,1.52
2023-03-11T08:57:13.221Z,1.55
2023-03-11T08:59:39.745Z,1.65
2023-03-11T09:02:06.230Z,1.78
2023-03-11T09:04:32.693Z,1.82
2023-03-11T09:06:59.227Z,1.95
2023-03-11T09:09:25.625Z,2.11
2023-03-11T09:11:52.064Z,2.26
2023-03-11T09:14:18.675Z,2.34
2023-03-11T09:16:45.190Z,2.33
2023-03-11T09:19:11.643Z,2.22
2023-03-11T09:21:38.238Z,2.16
2023-03-11T09:24:05.626Z,2.09
2023-03-11T09:26:32.678Z,2.10
2023-03-11T09:28:59.219Z,2.19
2023-03-11T09:31:25.824Z,2.32
2023-03-11T09:33:52.831Z,2.48
2023-03-11T09:36:21.311Z,2.59
2023-03-11T09:38:48.876Z,2.55
2023-03-11T09:41:18.107Z,2.54
2023-03-11T09:43:56.693Z,2.54
2023-03-11T09:46:29.317Z,2.73
2023-03-11T09:49:09.533Z,2.93
2023-03-11T09:51:41.961Z,3.08
2023-03-11T09:54:13.138Z,3.11
2023-03-11T09:56:44.428Z,3.16
2023-03-11T09:59:30.274Z,3.17
2023-03-11T10:01:56.911Z,3.30
2023-03-11T10:04:42.721Z,3.48
2023-03-11T10:07:23.596Z,3.59
2023-03-11T10:09:56.697Z,3.71
2023-03-11T10:12:44.487Z,3.93
2023-03-11T10:15:11.966Z,4.01
2023-03-11T10:18:12.420Z,4.03
2023-03-11T10:21:03.386Z,4.02
2023-03-11T10:23:55.667Z,4.09
2023-03-11T10:26:37.118Z,4.20
2023-03-11T10:29:41.387Z,4.32
2023-03-11T10:32:24.701Z,4.54
2023-03-11T10:35:25.252Z,4.54
2023-03-11T10:37:56.895Z,4.69
2023-03-11T10:40:31.332Z,4.60
2023-03-11T10:43:03.193Z,4.62
2023-03-11T10:45:36.669Z,4.62
2023-03-11T10:48:07.864Z,4.67
2023-03-11T10:50:36.513Z,4.80
2023-03-11T10:53:19.044Z,5.08
2023-03-11T10:55:54.675Z,5.28
2023-03-11T10:58:26.977Z,5.13
2023-03-11T11:01:07.982Z,5.20
2023-03-11T11:03:36.375Z,5.20
2023-03-11T11:06:06.484Z,5.02
2023-03-11T11:08:33.889Z,5.03
2023-03-11T11:11:02.796Z,5.23
2023-03-11T11:13:37.227Z,5.41
2023-03-11T11:16:20.265Z,5.08
2023-03-11T11:19:03.784Z,4.90
2023-03-11T11:21:49.780Z,5.18
2023-03-11T11:24:27.541Z,5.19
2023-03-11T11:27:16.824Z,5.25
2023-03-11T11:29:43.751Z,5.18
2023-03-11T11:32:23.657Z,5.22
2023-03-11T11:34:59.497Z,5.35
2023-03-11T11:37:31.957Z,5.48
2023-03-11T11:40:11.252Z,5.63
2023-03-11T11:42:40.688Z,5.61
2023-03-11T11:46:03.459Z,5.43
2023-03-11T11:48:44.849Z,5.46
2023-03-11T11:51:49.599Z,5.32
2023-03-11T11:54:34.823Z,5.03
2023-03-11T11:57:10.321Z,4.93
2023-03-11T11:59:36.925Z,5.01
2023-03-11T12:02:09.405Z,5.20
2023-03-11T12:05:02.415Z,5.34
2023-03-11T12:07:38.493Z,5.36
2023-03-11T12:10:29.355Z,5.19
2023-03-11T12:13:24.943Z,5.32
2023-03-11T12:16:02.216Z,5.37
2023-03-11T12:18:41.354Z,5.34
2023-03-11T12:21:23.749Z,5.35
2023-03-11T12:24:04.983Z,5.47
2023-03-11T12:26:38.078Z,5.54
2023-03-11T12:29:16.189Z,5.63
2023-03-11T12:31:44.237Z,5.64
2023-03-11T12:34:12.635Z,5.65
2023-03-11T12:36:41.103Z,5.66
2023-03-11T12:39:22.035Z,5.65
2023-03-11T12:41:48.461Z,5.76
2023-03-11T12:44:22.444Z,5.82
2023-03-11T12:46:57.979Z,5.84
2023-03-11T12:49:31.903Z,5.76
2023-03-11T12:52:05.764Z,5.67
2023-03-11T12:54:44.925Z,5.63
2023-03-11T12:57:17.791Z,5.78
2023-03-11T12:59:53.396Z,5.83
2023-03-11T13:02:57.633Z,5.87
2023-03-11T13:05:31.737Z,5.97
2023-03-11T13:08:15.701Z,5.89
2023-03-11T13:10:44.511Z,5.97
2023-03-11T13:13:29.718Z,6.02
2023-03-11T13:15:57.422Z,6.23
2023-03-11T13:18:24.810Z,6.15
2023-03-11T13:21:02.108Z,6.09
2023-03-11T13:23:42.061Z,6.14
2023-03-11T13:26:36.093Z,6.21
2023-03-11T13:29:29.405Z,6.21
2023-03-11T13:32:17.561Z,6.07
2023-03-11T13:35:21.474Z,6.11
2023-03-11T13:38:34.628Z,6.11
2023-03-11T13:41:03.171Z,6.16
2023-03-11T13:43:30.188Z,6.00
2023-03-11T13:46:01.839Z,5.98
2023-03-11T13:48:31.442Z,5.89
2023-03-11T13:51:01.966Z,5.96
2023-03-11T13:53:42.396Z,5.99
2023-03-11T13:56:27.969Z,6.08
2023-03-11T13:58:54.741Z,6.19
2023-03-11T14:01:21.408Z,6.04
2023-03-11T14:03:48.503Z,5.91
2023-03-11T14:06:19.773Z,5.67
2023-03-11T14:08:57.656Z,5.74
2023-03-11T14:11:31.794Z,5.86
2023-03-11T14:13:58.620Z,5.91
2023-03-11T14:16:43.791Z,5.78
2023-03-11T14:19:18.352Z,5.72
2023-03-11T14:21:46.906Z,5.82
2023-03-11T14:24:19.998Z,5.89
2023-03-11T14:26:49.854Z,5.95
2023-03-11T14:29:19.800Z,6.02
2023-03-11T14:31:47.409Z,6.00
2023-03-11T14:34:22.844Z,5.95
2023-03-11T14:36:52.527Z,5.93
2023-03-11T14:39:34.306Z,5.97
2023-03-11T14:42:26.032Z,5.84
2023-03-11T14:45:05.449Z,5.76
2023-03-11T14:47:39.117Z,5.80
2023-03-11T14:50:17.871Z,5.86
2023-03-11T14:52:47.711Z,5.83
2023-03-11T14:55:20.055Z,5.92
2023-03-11T14:58:03.199Z,6.14
2023-03-11T15:00:36.718Z,6.25
2023-03-11T15:03:12.631Z,6.20
2023-03-11T15:05:54.994Z,6.25
2023-03-11T15:08:26.152Z,6.18
2023-03-11T15:11:04.804Z,6.19
2023-03-11T15:13:31.895Z,6.20
2023-03-11T15:16:00.569Z,6.15
2023-03-11T15:18:33.433Z,6.11
2023-03-11T15:21:19.365Z,6.00
2023-03-11T15:24:02.595Z,6.01
2023-03-11T15:26:32.000Z,6.14
2023-03-11T15:29:13.915Z,6.11
2023-03-11T15:31:44.978Z,5.99
2023-03-11T15:34:17.818Z,5.90
2023-03-11T15:36:55.934Z,5.67
2023-03-11T15:39:31.546Z,5.63
2023-03-11T15:42:06.016Z,5.67
2023-03-11T15:44:43.706Z,5.60
2023-03-11T15:47:16.025Z,5.54
2023-03-11T15:49:42.827Z,5.43
2023-03-11T15:52:09.796Z,5.42
2023-03-11T15:54:36.762Z,5.48
2023-03-11T15:57:07.429Z,5.39
2023-03-11T15:59:35.747Z,5.42
2023-03-11T16:02:02.311Z,5.43
2023-03-11T16:04:29.016Z,5.34
2023-03-11T16:07:07.494Z,5.29
2023-03-11T16:09:35.509Z,5.34
2023-03-11T16:12:08.528Z,5.37
2023-03-11T16:14:35.027Z,5.39
2023-03-11T16:17:01.457Z,5.40
2023-03-11T16:19:27.923Z,5.36
2023-03-11T16:21:54.389Z,5.30
2023-03-11T16:24:24.010Z,5.23
2023-03-11T16:26:52.608Z,5.16
2023-03-11T16:29:20.301Z,5.12
2023-03-11T16:31:47.149Z,5.08
2023-03-11T16:34:13.690Z,5.02
2023-03-11T16:36:40.252Z,4.98
2023-03-11T16:39:06.728Z,4.94
2023-03-11T16:41:44.665Z,4.83
2023-03-11T16:44:12.117Z,4.80
2023-03-11T16:46:38.816Z,4.75
2023-03-11T16:49:05.983Z,4.73
2023-03-11T16:51:32.623Z,4.66
2023-03-11T16:53:59.605Z,4.56
2023-03-11T16:56:26.399Z,4.52
2023-03-11T16:58:52.900Z,4.52
2023-03-11T17:01:21.627Z,4.45
2023-03-11T17:03:52.150Z,4.35
2023-03-11T17:06:19.567Z,4.29
2023-03-11T17:08:50.871Z,4.21
2023-03-11T17:11:24.617Z,4.12
2023-03-11T17:13:51.101Z,4.04
2023-03-11T17:16:18.247Z,3.99
2023-03-11T17:18:44.767Z,3.90
2023-03-11T17:21:14.851Z,3.83
2023-03-11T17:23:41.957Z,3.74
2023-03-11T17:26:11.491Z,3.65
2023-03-11T17:28:40.028Z,3.57
2023-03-11T17:31:15.322Z,3.53
2023-03-11T17:33:41.963Z,3.47
2023-03-11T17:36:13.179Z,3.36
2023-03-11T17:38:39.772Z,3.26
2023-03-11T17:41:11.208Z,3.17
2023-03-11T17:43:37.754Z,3.07
2023-03-11T17:46:10.872Z,2.99
2023-03-11T17:48:40.391Z,2.92
2023-03-11T17:51:12.289Z,2.83
2023-03-11T17:53:40.529Z,2.76
2023-03-11T17:56:07.953Z,2.70
2023-03-11T17:58:35.764Z,2.67
2023-03-11T18:01:07.653Z,2.59
2023-03-11T18:03:34.158Z,2.53
2023-03-11T18:06:03.886Z,2.45
2023-03-11T18:08:31.029Z,2.41
2023-03-11T18:11:09.701Z,2.36
2023-03-11T18:13:38.058Z,2.34
2023-03-11T18:16:11.264Z,2.30
2023-03-11T18:18:38.202Z,2.28
2023-03-11T18:21:11.236Z,2.26
2023-03-11T18:23:39.053Z,2.24
2023-03-11T18:26:07.705Z,2.24
2023-03-11T18:28:35.435Z,2.20
2023-03-11T18:31:11.956Z,2.17
2023-03-11T18:33:39.073Z,2.19
2023-03-11T18:36:17.673Z,2.19
2023-03-11T18:38:44.590Z,2.21
2023-03-11T18:41:11.222Z,2.22
2023-03-11T18:43:38.324Z,2.22
2023-03-11T18:46:14.737Z,2.24
2023-03-11T18:48:41.740Z,2.24
2023-03-11T18:51:09.342Z,2.23
2023-03-11T18:53:36.495Z,2.18
2023-03-11T18:56:10.004Z,2.15
2023-03-11T18:58:36.613Z,2.15
2023-03-11T19:01:08.612Z,2.14
2023-03-11T19:03:35.580Z,2.14
2023-03-11T19:06:02.418Z,2.11
2023-03-11T19:08:29.103Z,2.06
2023-03-11T19:10:55.939Z,2.02
2023-03-11T19:13:22.603Z,1.99
2023-03-11T19:15:49.209Z,1.95
2023-03-11T19:18:15.852Z,1.98
2023-03-11T19:20:42.399Z,1.96
2023-03-11T19:23:09.290Z,1.94
2023-03-11T19:25:36.239Z,1.91
2023-03-11T19:28:02.924Z,1.87
2023-03-11T19:30:29.518Z,1.80
2023-03-11T19:32:56.004Z,1.76
2023-03-11T19:35:23.650Z,1.71
2023-03-11T19:37:50.594Z,1.68
2023-03-11T19:40:17.819Z,1.61
2023-03-11T19:42:44.349Z,1.56
2023-03-11T19:45:11.642Z,1.49
2023-03-11T19:47:38.986Z,1.42
2023-03-11T19:50:06.257Z,1.36
2023-03-11T19:52:34.688Z,1.32
2023-03-11T19:55:01.128Z,1.26
2023-03-11T19:57:27.590Z,1.17
2023-03-11T19:59:55.301Z,1.14
2023-03-11T20:02:21.877Z,1.10
2023-03-11T20:04:48.492Z,1.08
2023-03-11T20:07:14.945Z,1.06
2023-03-11T20:09:41.505Z,1.02
2023-03-11T20:12:08.212Z,0.99
2023-03-11T20:14:34.665Z,0.95
2023-03-11T20:17:01.165Z,0.83
2023-03-11T20:19:27.792Z,0.72
2023-03-11T20:21:54.291Z,0.64
2023-03-11T20:24:20.867Z,0.61
2023-03-11T20:26:49.314Z,0.56
2023-03-11T20:29:17.269Z,0.58
2023-03-11T20:31:44.667Z,0.59
2023-03-11T20:34:12.158Z,0.57
2023-03-11T20:36:38.900Z,0.56
2023-03-11T20:39:09.906Z,0.53
2023-03-11T20:41:39.697Z,0.50
2023-03-11T20:44:08.349Z,0.52
2023-03-11T20:46:35.030Z,0.54
2023-03-11T20:49:02.189Z,0.52
2023-03-11T20:51:28.701Z,0.46
2023-03-11T20:53:55.351Z,0.46
2023-03-11T20:56:24.922Z,0.45
2023-03-11T20:58:53.109Z,0.46
2023-03-11T21:01:22.995Z,0.47
2023-03-11T21:03:49.918Z,0.46
2023-03-11T21:06:29.382Z,0.45
2023-03-11T21:08:57.400Z,0.49
2023-03-11T21:11:25.300Z,0.49
2023-03-11T21:13:52.054Z,0.46
2023-03-11T21:16:18.649Z,0.40
2023-03-11T21:18:48.672Z,0.33
2023-03-11T21:21:17.628Z,0.28
2023-03-11T21:23:45.183Z,0.28
2023-03-11T21:26:14.095Z,0.32
2023-03-11T21:28:42.320Z,0.36
2023-03-11T21:31:17.569Z,0.40
2023-03-11T21:33:44.985Z,0.41
2023-03-11T21:36:13.286Z,0.44
2023-03-11T21:38:40.538Z,0.38
2023-03-11T21:41:10.146Z,0.31
2023-03-11T21:43:38.175Z,0.25
2023-03-11T21:46:06.572Z,0.21
2023-03-11T21:48:34.178Z,0.19
2023-03-11T21:51:01.540Z,0.12
2023-03-11T21:53:29.292Z,0.12
2023-03-11T21:55:55.798Z,0.17
2023-03-11T21:58:22.948Z,0.17
2023-03-11T22:00:49.599Z,0.13
2023-03-11T22:03:16.550Z,0.08
2023-03-11T22:05:43.208Z,-0.03
2023-03-11T22:08:10.097Z,-0.01
2023-03-11T22:10:37.192Z,-0.01
2023-03-11T22:13:04.097Z,0.00
2023-03-11T22:15:30.905Z,-0.02
2023-03-11T22:17:57.491Z,-0.09
2023-03-11T22:20:23.956Z,-0.14
2023-03-11T22:22:50.365Z,-0.19
2023-03-11T22:25:16.851Z,-0.15
2023-03-11T22:27:43.228Z,-0.21
2023-03-11T22:30:10.265Z,-0.24
2023-03-11T22:32:36.738Z,-0.27
2023-03-11T22:35:03.356Z,-0.28
2023-03-11T22:37:29.756Z,-0.27
2023-03-11T22:39:56.192Z,-0.24
2023-03-11T22:42:22.582Z,-0.27
2023-03-11T22:44:49.172Z,-0.27
2023-03-11T22:47:15.606Z,-0.30
2023-03-11T22:49:42.596Z,-0.34
2023-03-11T22:52:09.132Z,-0.38
2023-03-11T22:54:37.087Z,-0.40
2023-03-11T22:57:03.720Z,-0.42
2023-03-11T22:59:30.966Z,-0.41
2023-03-11T23:01:57.543Z,-0.41
2023-03-11T23:04:23.980Z,-0.40
2023-03-11T23:06:50.475Z,-0.40
2023-03-11T23:09:16.962Z,-0.36
2023-03-11T23:11:43.379Z,-0.33
2023-03-11T23:14:09.798Z,-0.35
2023-03-11T23:16:36.229Z,-0.32
2023-03-11T23:19:02.681Z,-0.33
2023-03-11T23:21:31.768Z,-0.31
2023-03-11T23:24:00.712Z,-0.34
2023-03-11T23:26:29.120Z,-0.33
2023-03-11T23:28:56.588Z,-0.33
2023-03-11T23:31:25.195Z,-0.30
2023-03-11T23:33:51.938Z,-0.25
2023-03-11T23:36:20.990Z,-0.21
2023-03-11T23:38:49.612Z,-0.19
2023-03-11T23:41:19.014Z,-0.19
2023-03-11T23:43:46.122Z,-0.20
2023-03-11T23:46:13.286Z,-0.21
2023-03-11T23:48:40.797Z,-0.17
2023-03-11T23:51:09.195Z,-0.16
2023-03-11T23:53:36.388Z,-0.19
2023-03-11T23:56:09.280Z,-0.17
2023-03-11T23:58:35.813Z,-0.17
